Time;durP1;ratioP1;P1;durP2;ratioP2;P2;SDS_P1;SDS_P2;PMS_P1;PMS_P2;Temp;Humidity;BMP_temperature;BMP_pressure;BME280_temperature;BME280_humidity;BME280_pressure;Samples;Min_cycle;Max_cycle;Signal;HPM_P1;HPM_P2
2022/07/15 00:01:21;;;;;;;0.40;0.40;;;;;;;13.99;70.13;100905.97;5043709;28;20233;-71
2022/07/15 00:03:48;;;;;;;0.40;0.40;;;;;;;13.94;70.65;100897.41;5044781;28;20213;-71
2022/07/15 00:06:15;;;;;;;0.80;0.60;;;;;;;13.94;70.76;100902.66;5044239;28;20195;-71
2022/07/15 00:08:42;;;;;;;1.10;0.43;;;;;;;13.92;70.90;100905.31;5045337;28;20198;-71
2022/07/15 00:11:08;;;;;;;0.40;0.40;;;;;;;13.87;71.10;100904.63;5040557;28;20230;-71
2022/07/15 00:13:34;;;;;;;1.63;0.60;;;;;;;13.88;71.60;100906.34;5041011;28;20213;-71
2022/07/15 00:16:01;;;;;;;0.30;0.30;;;;;;;13.85;72.05;100903.81;5043385;28;20206;-71
2022/07/15 00:18:27;;;;;;;0.40;0.40;;;;;;;13.83;73.83;100905.66;5045546;28;20281;-71
2022/07/15 00:20:53;;;;;;;0.40;0.40;;;;;;;13.79;73.63;100896.16;5046975;28;20217;-71
2022/07/15 00:23:21;;;;;;;0.50;0.50;;;;;;;13.76;73.85;100904.16;5044208;28;20198;-71
2022/07/15 00:25:47;;;;;;;0.67;0.50;;;;;;;13.69;73.57;100906.13;5045971;28;20581;-71
2022/07/15 00:28:14;;;;;;;0.50;0.50;;;;;;;13.67;73.52;100913.19;5045449;28;20569;-71
2022/07/15 00:30:42;;;;;;;1.47;0.57;;;;;;;13.67;74.34;100914.94;5029632;28;20291;-71
2022/07/15 00:33:10;;;;;;;0.80;0.60;;;;;;;13.64;74.50;100913.28;5045719;28;20740;-71
2022/07/15 00:35:39;;;;;;;0.63;0.50;;;;;;;13.62;75.47;100907.25;5027154;28;20207;-71
2022/07/15 00:38:08;;;;;;;0.50;0.50;;;;;;;13.64;77.35;100910.66;5041532;28;20202;-71
2022/07/15 00:40:42;;;;;;;0.50;0.50;;;;;;;13.55;75.54;100914.47;5046310;28;21084;-71
2022/07/15 00:43:08;;;;;;;0.93;0.67;;;;;;;13.53;76.75;100912.81;5044154;28;20680;-71
2022/07/15 00:45:35;;;;;;;0.40;0.40;;;;;;;13.47;75.89;100910.38;5046056;28;20852;-71
2022/07/15 00:48:01;;;;;;;0.50;0.50;;;;;;;13.50;78.23;100905.03;5045060;28;20301;-71
2022/07/15 00:50:30;;;;;;;0.93;0.50;;;;;;;13.54;81.47;100911.88;5038457;28;20668;-71
2022/07/15 00:53:03;;;;;;;0.77;0.40;;;;;;;13.44;79.54;100909.59;5028701;28;20204;-71
2022/07/15 00:55:32;;;;;;;0.60;0.60;;;;;;;13.59;86.88;100904.72;5042735;28;20205;-71
2022/07/15 00:58:02;;;;;;;0.40;0.40;;;;;;;13.42;83.18;100908.78;5022905;28;20239;-71
2022/07/15 01:00:29;;;;;;;0.40;0.40;;;;;;;13.44;85.88;100903.50;5027544;28;20213;-71
2022/07/15 01:02:55;;;;;;;0.40;0.40;;;;;;;13.35;84.31;100909.91;5044393;28;20691;-71
2022/07/15 01:05:22;;;;;;;1.50;0.53;;;;;;;13.24;84.27;100909.34;5045527;28;20294;-71
2022/07/15 01:07:50;;;;;;;0.73;0.60;;;;;;;13.22;83.68;100906.78;5045427;28;20602;-71
2022/07/15 01:10:17;;;;;;;0.40;0.40;;;;;;;13.42;92.20;100895.69;5026974;28;20478;-71
2022/07/15 01:12:46;;;;;;;1.17;0.50;;;;;;;13.24;85.54;100907.59;5038722;28;20219;-71
2022/07/15 01:15:15;;;;;;;0.60;0.50;;;;;;;13.17;86.34;100906.06;5027447;28;20572;-71
2022/07/15 01:17:41;;;;;;;0.40;0.40;;;;;;;13.03;84.60;100903.91;5044911;28;20211;-71
2022/07/15 01:20:10;;;;;;;0.50;0.50;;;;;;;13.06;86.07;100897.72;5025978;28;20209;-71
2022/07/15 01:22:48;;;;;;;0.50;0.43;;;;;;;13.07;88.30;100902.91;5028055;28;20572;-71
2022/07/15 01:25:15;;;;;;;0.53;0.50;;;;;;;12.95;85.20;100918.16;5044500;28;20567;-71
2022/07/15 01:27:54;;;;;;;3.70;0.60;;;;;;;12.96;86.45;100907.59;5027514;28;20572;-71
2022/07/15 01:30:24;;;;;;;0.50;0.50;;;;;;;12.85;84.19;100909.72;5023621;28;21614;-71
2022/07/15 01:32:52;;;;;;;1.00;0.70;;;;;;;12.84;86.68;100908.88;5044246;28;20207;-71
2022/07/15 01:35:18;;;;;;;0.50;0.50;;;;;;;12.98;91.74;100907.56;5042530;28;20664;-71
2022/07/15 01:37:48;;;;;;;0.50;0.50;;;;;;;13.01;92.29;100902.25;5027635;28;20253;-71
2022/07/15 01:40:16;;;;;;;0.60;0.60;;;;;;;12.85;87.85;100909.72;5024502;28;20207;-71
2022/07/15 01:42:42;;;;;;;0.60;0.60;;;;;;;12.77;87.46;100919.56;5021933;28;20224;-71
2022/07/15 01:45:12;;;;;;;0.60;0.60;;;;;;;12.88;93.31;100913.09;5024493;28;20199;-71
2022/07/15 01:47:43;;;;;;;0.90;0.73;;;;;;;12.99;97.03;100909.28;5039780;28;20282;-71
2022/07/15 01:50:11;;;;;;;0.63;0.50;;;;;;;13.03;98.13;100911.78;5041498;28;20282;-71
2022/07/15 01:52:55;;;;;;;0.50;0.50;;;;;;;12.75;90.81;100927.47;5043102;28;20204;-71
2022/07/15 01:55:22;;;;;;;0.60;0.57;;;;;;;12.99;97.71;100911.91;5026684;28;20261;-71
2022/07/15 01:57:49;;;;;;;1.17;0.70;;;;;;;12.81;94.01;100919.41;5026554;28;20746;-71
2022/07/15 02:00:17;;;;;;;0.83;0.70;;;;;;;13.00;100.00;100911.84;5025850;28;20278;-71
2022/07/15 02:02:44;;;;;;;0.70;0.70;;;;;;;12.88;98.46;100912.25;5043185;28;20289;-71
2022/07/15 02:05:12;;;;;;;0.90;0.60;;;;;;;12.86;97.50;100920.13;5043594;28;20196;-71
2022/07/15 02:07:39;;;;;;;1.10;1.00;;;;;;;12.72;95.65;100919.72;5023034;28;20200;-71
2022/07/15 02:10:09;;;;;;;2.07;0.50;;;;;;;12.74;96.15;100909.19;5025236;28;20196;-71
2022/07/15 02:12:36;;;;;;;0.67;0.67;;;;;;;12.60;94.44;100920.94;5027051;28;20242;-71
2022/07/15 02:15:04;;;;;;;2.47;0.50;;;;;;;12.61;96.78;100919.16;5044539;28;20202;-71
2022/07/15 02:17:41;;;;;;;0.60;0.60;;;;;;;12.63;98.54;100920.00;5024328;28;20219;-71
2022/07/15 02:20:09;;;;;;;1.20;0.70;;;;;;;12.60;98.83;100922.69;5028278;28;20302;-71
2022/07/15 02:22:37;;;;;;;0.60;0.60;;;;;;;12.36;93.22;100925.09;5043167;28;20224;-71
2022/07/15 02:25:04;;;;;;;1.17;0.77;;;;;;;12.42;97.13;100927.56;5045731;28;20183;-71
2022/07/15 02:27:33;;;;;;;0.50;0.50;;;;;;;12.50;100.00;100925.59;5023158;28;20195;-71
2022/07/15 02:29:59;;;;;;;3.50;0.70;;;;;;;12.47;100.00;100924.78;5026848;28;20681;-71
2022/07/15 02:32:31;;;;;;;1.10;0.70;;;;;;;12.28;94.39;100929.72;5023887;28;20656;-71
2022/07/15 02:34:59;;;;;;;0.60;0.60;;;;;;;12.32;97.80;100928.72;5030377;28;20207;-71
2022/07/15 02:37:27;;;;;;;1.83;0.80;;;;;;;12.16;94.76;100927.44;5025857;28;20211;-71
2022/07/15 02:39:53;;;;;;;0.50;0.50;;;;;;;12.15;94.91;100931.78;5026156;28;20567;-71
2022/07/15 02:42:20;;;;;;;0.60;0.60;;;;;;;12.20;98.51;100929.91;5025484;28;20223;-71
2022/07/15 02:44:48;;;;;;;0.90;0.60;;;;;;;12.16;98.87;100935.28;5026688;28;20195;-71
2022/07/15 02:47:16;;;;;;;0.70;0.70;;;;;;;12.09;95.92;100942.44;5039600;28;20196;-71
2022/07/15 02:49:44;;;;;;;1.90;0.90;;;;;;;12.12;98.42;100940.59;5042723;28;20195;-71
2022/07/15 02:52:12;;;;;;;0.70;0.70;;;;;;;12.04;97.44;100947.78;5024726;28;20211;-71
2022/07/15 02:54:42;;;;;;;1.90;0.60;;;;;;;12.00;97.92;100950.53;5025364;28;20200;-71
2022/07/15 02:57:08;;;;;;;0.90;0.70;;;;;;;11.96;97.98;100949.75;5026069;28;20249;-71
2022/07/15 02:59:37;;;;;;;1.77;0.80;;;;;;;11.87;96.52;100955.19;5028082;28;20194;-71
2022/07/15 03:02:05;;;;;;;0.73;0.73;;;;;;;12.06;100.00;100956.44;5030817;28;20254;-71
2022/07/15 03:04:31;;;;;;;0.60;0.60;;;;;;;11.87;96.68;100963.00;5026391;28;20219;-71
2022/07/15 03:06:59;;;;;;;0.70;0.70;;;;;;;11.98;100.00;100962.75;5041412;28;20694;-71
2022/07/15 03:09:25;;;;;;;1.40;0.90;;;;;;;12.02;100.00;100961.81;5032461;28;20580;-71
2022/07/15 03:11:51;;;;;;;2.43;0.80;;;;;;;11.86;99.57;100956.09;5042020;28;20245;-71
2022/07/15 03:14:18;;;;;;;1.40;0.80;;;;;;;11.85;100.00;100959.59;5025826;28;20203;-71
2022/07/15 03:16:46;;;;;;;1.33;0.60;;;;;;;11.89;100.00;100964.72;5033872;28;20690;-71
2022/07/15 03:19:14;;;;;;;0.60;0.60;;;;;;;12.06;100.00;100966.03;5025687;28;20584;-72
2022/07/15 03:21:44;;;;;;;4.37;0.60;;;;;;;11.95;100.00;100970.69;5021396;28;20483;-71
2022/07/15 03:24:12;;;;;;;1.00;0.67;;;;;;;12.05;100.00;100967.81;5041429;28;20699;-71
2022/07/15 03:26:41;;;;;;;0.90;0.60;;;;;;;12.19;100.00;100967.44;5025419;28;20191;-71
2022/07/15 03:29:07;;;;;;;1.10;0.80;;;;;;;12.02;100.00;100977.47;5027548;28;20293;-72
2022/07/15 03:31:34;;;;;;;0.60;0.60;;;;;;;12.07;100.00;100979.06;5020134;28;20242;-71
2022/07/15 03:34:00;;;;;;;0.70;0.70;;;;;;;12.07;100.00;100971.22;5043107;28;20262;-71
2022/07/15 03:36:29;;;;;;;0.70;0.70;;;;;;;12.07;100.00;100986.91;5023028;28;20284;-71
2022/07/15 03:38:55;;;;;;;2.53;0.77;;;;;;;12.05;100.00;100991.31;5043678;28;20283;-72
2022/07/15 03:41:22;;;;;;;2.23;0.80;;;;;;;11.99;100.00;100986.25;5043251;28;20227;-71
2022/07/15 03:43:48;;;;;;;0.97;0.83;;;;;;;12.16;100.00;100995.41;5024520;28;20350;-71
2022/07/15 03:46:15;;;;;;;2.57;0.83;;;;;;;12.24;100.00;100993.44;5023876;28;20195;-71
2022/07/15 03:48:46;;;;;;;1.00;0.90;;;;;;;12.12;100.00;101005.09;5021961;28;20194;-71
2022/07/15 03:51:12;;;;;;;2.37;1.07;;;;;;;12.13;100.00;101010.25;5023603;28;20305;-71
2022/07/15 03:53:40;;;;;;;1.70;0.70;;;;;;;12.11;100.00;101011.19;5030062;28;20200;-71
2022/07/15 03:56:07;;;;;;;0.97;0.87;;;;;;;12.09;100.00;101005.16;5023135;28;20210;-71
2022/07/15 03:58:33;;;;;;;0.77;0.67;;;;;;;12.44;100.00;100998.13;5025392;28;20565;-71
2022/07/15 04:03:35;;;;;;;1.60;0.83;;;;;;;12.23;99.24;101013.50;5038729;28;20953;-75
2022/07/15 04:06:01;;;;;;;2.60;0.80;;;;;;;12.38;100.00;101011.34;5039104;28;20236;-74
2022/07/15 04:08:28;;;;;;;2.10;1.03;;;;;;;12.49;100.00;101009.31;5034447;28;20210;-75
2022/07/15 04:10:56;;;;;;;6.83;1.07;;;;;;;12.52;99.28;101014.44;5047600;28;21125;-75
2022/07/15 04:13:22;;;;;;;2.20;0.90;;;;;;;12.55;100.00;101021.34;5018787;28;20290;-75
2022/07/15 04:15:52;;;;;;;1.20;0.90;;;;;;;12.65;100.00;101020.19;5018464;28;20210;-75
2022/07/15 04:18:18;;;;;;;1.33;0.73;;;;;;;12.74;99.04;101022.56;5040743;28;20197;-73
2022/07/15 04:20:46;;;;;;;0.70;0.70;;;;;;;12.93;98.82;101029.84;5038802;28;20747;-75
2022/07/15 04:23:13;;;;;;;1.17;0.70;;;;;;;12.94;95.94;101028.97;5038303;28;20306;-74
2022/07/15 04:25:39;;;;;;;0.67;0.67;;;;;;;12.99;96.67;101025.28;5020598;28;20197;-74
2022/07/15 04:28:07;;;;;;;3.23;1.30;;;;;;;12.97;94.78;101034.97;5022544;28;20553;-74
2022/07/15 04:30:35;;;;;;;0.90;0.73;;;;;;;13.14;96.66;101039.69;5035004;28;20201;-74
2022/07/15 04:33:02;;;;;;;0.60;0.50;;;;;;;13.23;95.72;101030.72;5023832;28;20226;-74
2022/07/15 04:35:31;;;;;;;1.83;0.80;;;;;;;13.19;92.67;101036.91;5038620;28;20693;-74
2022/07/15 04:52:53;;;;;;;0.73;0.70;;;;;;;13.69;90.08;101059.88;5031821;28;20305;-75
2022/07/15 04:55:20;;;;;;;1.53;0.63;;;;;;;13.69;88.77;101062.50;5042203;28;20202;-75
2022/07/15 04:57:51;;;;;;;2.20;0.70;;;;;;;13.77;88.02;101060.47;5057847;28;20210;-74
2022/07/15 05:00:17;;;;;;;1.00;0.70;;;;;;;13.90;88.43;101055.69;5039270;28;20222;-74
2022/07/15 05:02:44;;;;;;;1.90;0.90;;;;;;;13.88;86.39;101055.75;5010096;28;20206;-73
2022/07/15 05:05:12;;;;;;;2.13;0.70;;;;;;;13.93;86.68;101061.69;5066707;22;20313;-72
2022/07/15 05:07:38;;;;;;;2.37;0.73;;;;;;;13.98;86.84;101059.78;5058006;28;20527;-72
2022/07/15 05:10:06;;;;;;;2.97;0.77;;;;;;;14.07;87.60;101066.47;5061455;28;20355;-73
2022/07/15 05:12:34;;;;;;;1.27;0.63;;;;;;;14.15;86.39;101067.06;5059242;28;20202;-72
2022/07/15 05:15:01;;;;;;;1.60;0.50;;;;;;;14.10;84.19;101079.47;5062587;28;20321;-73
2022/07/15 05:17:28;;;;;;;1.40;0.80;;;;;;;14.18;86.11;101071.34;5036347;28;20292;-72
2022/07/15 05:19:55;;;;;;;1.40;0.60;;;;;;;14.26;85.37;101074.56;5040708;28;20746;-73
2022/07/15 05:22:25;;;;;;;0.70;0.60;;;;;;;14.33;84.47;101078.66;5034753;28;20211;-73
2022/07/15 05:24:52;;;;;;;1.30;0.70;;;;;;;14.39;83.58;101088.13;5051853;22;20237;-73
2022/07/15 05:27:19;;;;;;;2.03;0.70;;;;;;;14.45;82.49;101087.91;5034748;28;20223;-72
2022/07/15 05:29:48;;;;;;;0.50;0.50;;;;;;;14.53;83.97;101093.75;5037686;28;20694;-73
2022/07/15 05:32:16;;;;;;;1.33;0.60;;;;;;;14.61;82.87;101097.88;5039467;28;20198;-74
2022/07/15 05:34:44;;;;;;;1.00;0.60;;;;;;;14.69;82.51;101090.59;5038714;28;20599;-74
2022/07/15 05:37:12;;;;;;;1.80;0.77;;;;;;;14.75;81.66;101099.09;5063567;22;20783;-75
2022/07/15 05:39:53;;;;;;;0.60;0.43;;;;;;;14.78;81.07;101087.66;5061627;28;20721;-76
2022/07/15 05:42:24;;;;;;;1.10;0.50;;;;;;;14.73;80.91;101108.78;5067335;28;20296;-76
2022/07/15 05:44:51;;;;;;;2.93;0.50;;;;;;;14.82;80.53;101112.00;5079356;28;20727;-76
2022/07/15 05:47:17;;;;;;;2.93;0.83;;;;;;;14.89;80.04;101116.13;5065784;28;20361;-74
2022/07/15 05:49:46;;;;;;;2.43;0.40;;;;;;;15.00;81.21;101123.59;5065471;28;20262;-75
2022/07/15 05:52:13;;;;;;;1.13;0.53;;;;;;;15.03;79.33;101124.34;5057903;28;20340;-75
2022/07/15 05:54:42;;;;;;;3.63;0.50;;;;;;;15.13;79.22;101117.00;5079518;28;20198;-75
2022/07/15 05:57:10;;;;;;;3.50;0.77;;;;;;;15.21;79.13;101130.69;5063072;28;20314;-74
2022/07/15 05:59:37;;;;;;;1.80;0.80;;;;;;;15.38;80.01;101123.97;5078083;28;20198;-75
2022/07/15 06:02:04;;;;;;;3.90;0.70;;;;;;;15.44;78.66;101129.84;5059056;28;20697;-74
2022/07/15 06:04:35;;;;;;;1.83;0.60;;;;;;;15.43;77.87;101135.16;5065230;28;20202;-76
2022/07/15 06:07:02;;;;;;;1.40;0.60;;;;;;;15.48;77.29;101133.19;5065905;28;20228;-75
2022/07/15 06:09:30;;;;;;;0.97;0.77;;;;;;;15.39;75.92;101136.16;5060573;28;20218;-75
2022/07/15 06:11:58;;;;;;;1.60;0.73;;;;;;;15.38;75.71;101134.47;5078670;28;21815;-75
2022/07/15 06:14:24;;;;;;;1.43;0.50;;;;;;;15.49;77.67;101134.91;5078389;28;20229;-76
2022/07/15 06:16:51;;;;;;;2.90;0.70;;;;;;;15.60;75.72;101140.63;5078886;28;20245;-75
2022/07/15 06:19:18;;;;;;;1.33;0.40;;;;;;;15.73;75.38;101137.50;5061864;28;20187;-76
2022/07/15 06:21:45;;;;;;;0.73;0.70;;;;;;;15.86;74.08;101139.59;5062271;28;20264;-76
2022/07/15 06:24:11;;;;;;;2.30;0.40;;;;;;;15.89;73.48;101136.84;5062165;28;20291;-75
2022/07/15 06:26:40;;;;;;;1.20;0.70;;;;;;;15.84;72.04;101144.06;5063477;28;20236;-75
2022/07/15 06:29:08;;;;;;;0.63;0.60;;;;;;;15.92;72.15;101145.53;5077523;28;20693;-76
2022/07/15 06:31:34;;;;;;;1.60;0.60;;;;;;;16.07;72.94;101151.00;5058256;28;20198;-76
2022/07/15 06:34:01;;;;;;;1.83;0.50;;;;;;;16.06;70.30;101153.72;5059104;28;20690;-75
2022/07/15 06:36:28;;;;;;;0.40;0.40;;;;;;;16.09;70.88;101159.72;5065025;28;20211;-76
2022/07/15 06:38:54;;;;;;;3.17;0.60;;;;;;;16.24;69.57;101152.13;5081107;28;20286;-75
2022/07/15 06:41:23;;;;;;;1.13;0.40;;;;;;;16.30;66.86;101154.47;5076142;28;20210;-76
2022/07/15 06:43:50;;;;;;;1.13;0.60;;;;;;;16.39;67.09;101151.50;5061623;28;20503;-75
2022/07/15 06:46:28;;;;;;;0.63;0.50;;;;;;;16.24;67.31;101154.75;5065446;28;20213;-76
2022/07/15 06:48:55;;;;;;;0.40;0.40;;;;;;;16.33;67.87;101158.78;5082787;28;20254;-75
2022/07/15 06:51:22;;;;;;;0.50;0.50;;;;;;;16.48;68.08;101150.25;5061364;28;20570;-76
2022/07/15 06:53:48;;;;;;;1.07;0.50;;;;;;;16.68;66.60;101152.00;5083551;28;20254;-75
2022/07/15 06:56:15;;;;;;;1.20;0.40;;;;;;;16.72;63.72;101158.00;5062622;28;20206;-74
2022/07/15 06:58:42;;;;;;;0.33;0.20;;;;;;;16.77;63.59;101161.28;5060293;28;20652;-76
2022/07/15 07:01:08;;;;;;;2.20;0.40;;;;;;;16.86;61.88;101160.06;5075975;28;20800;-75
2022/07/15 07:03:36;;;;;;;0.60;0.30;;;;;;;16.82;64.76;101156.69;5063455;28;20206;-76
2022/07/15 07:06:02;;;;;;;0.70;0.40;;;;;;;17.00;63.32;101152.41;5062369;28;20562;-76
2022/07/15 07:08:29;;;;;;;1.53;0.50;;;;;;;17.13;61.37;101150.94;5061667;28;20214;-76
2022/07/15 07:10:56;;;;;;;0.73;0.50;;;;;;;17.03;61.81;101153.13;5060567;28;20252;-75
2022/07/15 07:13:23;;;;;;;4.70;0.53;;;;;;;17.11;61.28;101158.03;5076235;28;20193;-76
2022/07/15 07:15:50;;;;;;;0.50;0.40;;;;;;;17.44;58.24;101167.97;5079012;28;20577;-76
2022/07/15 07:18:16;;;;;;;0.70;0.30;;;;;;;17.72;57.39;101161.41;5075260;28;20221;-75
2022/07/15 07:20:44;;;;;;;1.80;0.70;;;;;;;17.92;57.18;101156.06;5077705;28;20658;-75
2022/07/15 07:23:10;;;;;;;2.73;0.40;;;;;;;17.68;54.99;101159.84;5080445;28;20202;-75
2022/07/15 07:25:37;;;;;;;2.73;0.57;;;;;;;17.47;56.68;101167.00;5079232;28;20206;-75
2022/07/15 07:28:04;;;;;;;2.30;0.70;;;;;;;17.41;56.03;101168.09;5075319;28;20217;-75
2022/07/15 07:30:30;;;;;;;2.77;0.60;;;;;;;17.33;55.40;101171.09;5080339;28;20658;-75
2022/07/15 07:32:57;;;;;;;0.70;0.50;;;;;;;17.18;56.26;101170.03;5075560;28;20572;-75
2022/07/15 07:35:24;;;;;;;1.37;0.40;;;;;;;17.03;56.87;101160.19;5079671;28;20205;-74
2022/07/15 07:37:52;;;;;;;1.50;0.60;;;;;;;17.26;57.93;101161.75;5076691;28;20652;-76
2022/07/15 07:40:19;;;;;;;0.90;0.37;;;;;;;17.40;58.18;101161.13;5079500;28;20311;-75
2022/07/15 07:42:45;;;;;;;1.50;0.40;;;;;;;17.33;57.04;101163.19;5077885;28;20197;-75
2022/07/15 07:45:12;;;;;;;1.70;0.30;;;;;;;17.10;58.45;101158.13;5075541;28;20565;-76
2022/07/15 07:47:40;;;;;;;1.63;0.60;;;;;;;16.88;58.79;101160.84;5080538;28;20229;-75
2022/07/15 07:50:08;;;;;;;0.50;0.50;;;;;;;16.73;59.04;101168.47;5074799;28;20221;-75
2022/07/15 07:52:35;;;;;;;0.50;0.40;;;;;;;16.65;58.77;101170.56;5077122;28;20209;-75
2022/07/15 07:55:03;;;;;;;0.40;0.30;;;;;;;16.76;57.92;101172.72;5076824;28;20198;-75
2022/07/15 07:57:29;;;;;;;2.47;0.40;;;;;;;16.90;57.98;101169.53;5074479;28;20217;-75
2022/07/15 07:59:56;;;;;;;0.57;0.37;;;;;;;17.12;58.52;101164.19;5079401;28;20204;-76
2022/07/15 08:02:22;;;;;;;3.33;0.80;;;;;;;17.16;57.54;101171.00;5071833;28;20212;-76
2022/07/15 08:04:49;;;;;;;0.77;0.67;;;;;;;17.18;58.33;101177.06;5080217;28;20210;-74
2022/07/15 08:07:15;;;;;;;1.17;0.50;;;;;;;17.11;58.20;101173.00;5078104;28;20213;-75
2022/07/15 08:09:42;;;;;;;1.73;0.60;;;;;;;17.01;58.21;101177.84;5076978;28;20226;-75
2022/07/15 08:12:09;;;;;;;1.23;0.40;;;;;;;16.81;59.33;101174.22;5082325;28;20576;-75
2022/07/15 08:14:36;;;;;;;3.77;0.70;;;;;;;16.67;59.39;101176.59;5081001;28;20202;-75
2022/07/15 08:17:02;;;;;;;1.57;0.60;;;;;;;16.55;59.82;101180.66;5080332;28;20222;-75
2022/07/15 08:19:29;;;;;;;0.93;0.50;;;;;;;16.60;60.91;101188.31;5078356;28;20486;-74
2022/07/15 08:21:55;;;;;;;1.20;0.47;;;;;;;16.57;60.76;101193.72;5077672;28;20202;-75
2022/07/15 08:24:21;;;;;;;1.40;0.57;;;;;;;16.51;61.55;101184.31;5076767;28;20202;-75
2022/07/15 08:26:48;;;;;;;2.03;1.40;;;;;;;16.70;61.60;101176.47;5080348;28;20209;-75
2022/07/15 08:29:15;;;;;;;0.87;0.50;;;;;;;16.84;60.04;101179.41;5083737;28;20214;-75
2022/07/15 08:31:42;;;;;;;2.30;0.40;;;;;;;17.13;59.07;101176.41;5081992;28;20206;-76
2022/07/15 08:34:08;;;;;;;1.70;0.50;;;;;;;17.72;58.46;101190.41;5078183;28;20194;-75
2022/07/15 08:36:34;;;;;;;1.57;0.60;;;;;;;18.02;55.75;101182.84;5082263;28;20198;-75
2022/07/15 08:39:01;;;;;;;0.90;0.70;;;;;;;18.11;57.31;101186.81;5082616;28;20222;-75
2022/07/15 08:41:28;;;;;;;1.63;0.40;;;;;;;18.08;55.87;101193.13;5078560;28;20756;-75
2022/07/15 08:43:54;;;;;;;0.50;0.40;;;;;;;17.92;56.28;101182.44;5078400;28;20202;-75
2022/07/15 08:46:26;;;;;;;1.07;0.60;;;;;;;18.23;57.21;101173.03;5081231;28;20209;-75
2022/07/15 08:48:54;;;;;;;0.50;0.37;;;;;;;18.19;54.70;101191.72;5079921;28;20222;-76
2022/07/15 08:51:24;;;;;;;0.30;0.30;;;;;;;18.02;54.96;101189.91;5081975;28;20205;-76
2022/07/15 08:53:51;;;;;;;0.33;0.33;;;;;;;17.95;54.77;101189.34;5081145;28;21191;-75
2022/07/15 08:56:19;;;;;;;2.93;0.50;;;;;;;17.94;55.49;101190.25;5080832;28;20198;-75
2022/07/15 08:58:46;;;;;;;1.10;0.60;;;;;;;18.10;55.18;101185.97;5081454;28;20217;-75
2022/07/15 09:01:13;;;;;;;0.67;0.30;;;;;;;18.33;55.21;101182.19;5082697;28;20208;-75
2022/07/15 09:03:40;;;;;;;1.23;0.50;;;;;;;18.42;54.28;101178.25;5067302;28;20205;-75
2022/07/15 09:06:07;;;;;;;2.37;0.40;;;;;;;18.43;54.39;101187.00;5082836;28;20201;-75
2022/07/15 09:08:35;;;;;;;2.63;0.70;;;;;;;18.52;55.42;101184.78;5080442;28;20705;-75
2022/07/15 09:11:02;;;;;;;0.30;0.30;;;;;;;18.43;53.65;101184.38;5080748;28;20239;-75
2022/07/15 09:13:31;;;;;;;2.00;0.50;;;;;;;18.25;53.78;101189.63;5083800;28;20207;-76
2022/07/15 09:15:59;;;;;;;1.00;0.60;;;;;;;17.92;53.50;101190.38;5080774;28;20207;-75
2022/07/15 09:18:27;;;;;;;1.40;0.60;;;;;;;17.76;54.30;101198.13;5081462;28;20230;-76
2022/07/15 09:20:55;;;;;;;0.67;0.30;;;;;;;17.75;55.67;101198.19;5079088;28;20566;-76
2022/07/15 09:23:29;;;;;;;2.10;0.33;;;;;;;17.52;53.92;101204.50;5080945;28;20210;-76
2022/07/15 09:25:56;;;;;;;1.20;0.53;;;;;;;17.60;55.05;101199.75;5083471;28;20562;-75
2022/07/15 09:28:36;;;;;;;1.37;0.60;;;;;;;17.63;55.00;101201.41;5081339;28;20464;-74
2022/07/15 09:33:47;;;;;;;1.97;0.77;;;;;;;17.94;54.26;101212.25;5081279;28;20194;-76
2022/07/15 09:36:18;;;;;;;0.63;0.50;;;;;;;17.92;54.76;101205.31;5082211;28;20579;-75
2022/07/15 09:38:48;;;;;;;0.40;0.37;;;;;;;18.01;54.80;101212.81;5084077;28;20505;-75
2022/07/15 09:41:25;;;;;;;0.97;0.57;;;;;;;18.13;54.20;101206.94;5075986;28;20200;-75
2022/07/15 09:43:54;;;;;;;1.03;0.50;;;;;;;18.37;54.87;101201.38;5078060;28;20197;-75
2022/07/15 09:46:22;;;;;;;0.47;0.47;;;;;;;18.54;52.90;101200.53;5078471;28;20190;-76
2022/07/15 09:48:50;;;;;;;0.63;0.50;;;;;;;18.88;52.52;101194.41;5082454;28;20232;-76
2022/07/15 09:51:18;;;;;;;1.03;0.50;;;;;;;19.05;49.37;101197.94;5077645;28;20205;-76
2022/07/15 09:53:45;;;;;;;0.33;0.30;;;;;;;19.09;51.82;101186.28;5077747;28;20546;-76
2022/07/15 09:56:14;;;;;;;0.93;0.33;;;;;;;18.84;49.93;101194.66;5083473;28;20209;-75
2022/07/15 09:58:42;;;;;;;0.83;0.23;;;;;;;18.47;49.66;101209.72;5081148;28;20230;-75
2022/07/15 10:01:10;;;;;;;0.57;0.57;;;;;;;18.22;50.47;101205.59;5081823;28;20704;-75
2022/07/15 10:03:38;;;;;;;0.80;0.60;;;;;;;18.00;50.97;101218.16;5077871;28;20194;-76
2022/07/15 10:06:05;;;;;;;2.67;0.50;;;;;;;17.85;51.27;101207.34;5074104;28;20568;-75
2022/07/15 10:08:34;;;;;;;0.70;0.50;;;;;;;17.88;51.46;101209.03;5077655;28;20217;-75
2022/07/15 10:11:01;;;;;;;0.73;0.67;;;;;;;17.90;51.31;101213.28;5079284;28;20204;-75
2022/07/15 10:14:03;;;;;;;1.03;0.40;;;;;;;18.23;50.00;101215.25;5078824;28;20224;-76
2022/07/15 10:16:59;;;;;;;1.53;0.40;;;;;;;18.48;49.10;101208.75;5077967;28;20193;-76
2022/07/15 10:19:38;;;;;;;1.27;0.20;;;;;;;18.77;49.47;101214.34;5083007;28;20198;-75
2022/07/15 10:22:15;;;;;;;0.20;0.20;;;;;;;18.92;49.37;101219.72;5081794;28;20247;-75
2022/07/15 10:24:58;;;;;;;2.87;0.30;;;;;;;19.14;47.80;101212.47;5065242;28;20206;-76
2022/07/15 10:27:38;;;;;;;0.70;0.70;;;;;;;19.39;48.08;101209.38;5063143;28;20248;-75
2022/07/15 10:30:06;;;;;;;2.00;0.40;;;;;;;19.46;47.03;101214.25;5078698;28;20218;-75
2022/07/15 10:33:06;;;;;;;0.40;0.30;;;;;;;19.37;46.53;101221.84;5078478;28;20206;-76
2022/07/15 10:35:38;;;;;;;0.20;0.20;;;;;;;19.54;46.60;101215.63;5079342;28;20444;-76
2022/07/15 10:38:21;;;;;;;0.30;0.20;;;;;;;19.55;46.14;101222.63;5080547;28;20231;-75
2022/07/15 10:41:00;;;;;;;0.40;0.40;;;;;;;19.43;47.06;101216.19;5075262;28;20208;-76
2022/07/15 10:43:54;;;;;;;0.90;0.40;;;;;;;19.44;45.97;101218.78;5070900;28;20201;-76
2022/07/15 10:46:27;;;;;;;1.40;0.13;;;;;;;19.43;46.46;101213.56;5030231;28;20217;-74
2022/07/15 10:49:30;;;;;;;0.70;0.30;;;;;;;19.40;46.96;101219.00;5079426;28;20735;-75
2022/07/15 10:52:11;;;;;;;2.27;0.47;;;;;;;19.27;47.30;101219.66;5074819;28;20646;-75
2022/07/15 10:54:43;;;;;;;0.63;0.40;;;;;;;19.38;47.11;101211.16;5078719;28;20229;-74
2022/07/15 10:57:13;;;;;;;0.53;0.30;;;;;;;19.33;46.76;101209.69;5076063;28;20233;-76
2022/07/15 10:59:48;;;;;;;1.40;0.53;;;;;;;19.56;46.67;101205.81;5078055;28;20229;-76
2022/07/15 11:02:18;;;;;;;2.20;0.40;;;;;;;19.65;45.71;101215.91;5077915;28;20201;-75
2022/07/15 11:04:45;;;;;;;1.27;0.33;;;;;;;19.89;46.94;101210.22;5078211;28;20654;-75
2022/07/15 11:07:28;;;;;;;0.50;0.37;;;;;;;20.43;46.59;101210.66;5078029;28;20770;-76
2022/07/15 11:09:57;;;;;;;0.60;0.40;;;;;;;20.38;45.07;101218.00;5073183;28;20444;-75
2022/07/15 11:12:41;;;;;;;0.77;0.50;;;;;;;20.14;44.09;101218.47;5078324;28;20296;-76
2022/07/15 11:15:12;;;;;;;0.33;0.30;;;;;;;20.02;44.21;101213.88;5081777;28;20201;-74
2022/07/15 11:17:40;;;;;;;0.63;0.20;;;;;;;20.23;44.18;101214.47;5077525;28;20228;-76
2022/07/15 11:20:09;;;;;;;0.67;0.33;;;;;;;20.37;45.76;101209.22;5078529;28;20205;-76
2022/07/15 11:22:38;;;;;;;0.30;0.30;;;;;;;20.60;46.20;101205.22;5077752;28;20190;-75
2022/07/15 11:25:06;;;;;;;1.53;0.30;;;;;;;20.85;44.37;101202.94;5071460;28;20286;-75
2022/07/15 11:27:34;;;;;;;0.97;0.30;;;;;;;21.05;45.08;101202.56;5073238;28;20229;-76
2022/07/15 11:30:04;;;;;;;0.23;0.23;;;;;;;20.61;42.69;101217.56;5076378;28;20304;-76
2022/07/15 11:32:33;;;;;;;0.97;0.40;;;;;;;20.35;43.93;101211.09;5078037;28;20580;-76
2022/07/15 11:35:02;;;;;;;1.10;0.40;;;;;;;19.99;44.23;101206.97;5076257;28;20202;-75
2022/07/15 11:37:30;;;;;;;0.40;0.20;;;;;;;20.09;45.20;101206.44;5090201;23;20232;-72
2022/07/15 11:40:09;;;;;;;2.33;0.30;;;;;;;20.32;44.41;101202.47;5035004;28;20203;-72
2022/07/15 11:45:35;;;;;;;1.50;0.30;;;;;;;20.64;43.15;101210.38;4939734;28;20346;-71
2022/07/15 11:48:02;;;;;;;0.33;0.30;;;;;;;20.77;42.05;101220.16;5018020;28;20365;-71
2022/07/15 11:50:29;;;;;;;1.47;0.63;;;;;;;20.52;42.02;101209.25;5045253;28;20223;-72
2022/07/15 11:52:57;;;;;;;0.30;0.30;;;;;;;20.55;42.99;101207.28;5036549;28;20582;-71
2022/07/15 11:55:24;;;;;;;0.40;0.40;;;;;;;20.58;43.37;101204.47;5045829;28;20206;-72